Tucson International Airport
KTUS : now visible

Airfield :











YOU CAN JOIN US ON...

 
LOGIN :

Register | Disclaimer

   EN    FR    IT 

 









Legend :    VFR   Marginal VFR   IFR   Intensive IFR   Very Intensive IFR
Visi :
Ceiling :
>= 8 km
>= 3000ft
5 to 8 km
1000 to 3000 ft
1500m to 5 km
500 to 1000 ft
800 to 1500m
200 to 500 ft
< 800m
< 200 ft
Symbols :   Thunderstorms  Fog  Heavy snow  Heavy precipitations  Wind > 20 kt






- Airport Elevation : 2643 ft
- IATA code : TUS


KTUS - Tucson International

CURRENT METAR :
  • 290153Z 35005KT 10SM CLR 17/M07 A3006 RMK AO2 SLP164 T01671067

EXPIRED METARs :
  • 290053Z 34003KT 10SM CLR 18/M07 A3004 RMK AO2 SLP156 T01781072
  • 282353Z 33008KT 10SM CLR 19/M08 A3004 RMK AO2 SLP151 T01941083 10206 20139 53002

TAF KTUS
Valid from the 29 at 00:00 until the 30 at 00:00 UTC


282320Z 2900/2924 35011KT P6SM SKC
FM290300 12009KT P6SM SKC
FM291000 12012KT P6SM SKC
KZAB FIR / North America



MET'MAP, your aeronautical weather chart ! - Copyright ORBIFLY December 2007 - Disclaimer

ORBIFLY MET'MAP TEAM :

Programming & Development : Alexandra Zaïnal
Concept & original design : Baudouin d'Aumeries
Assistance for programming : Marc-Olivier Méhu
Technical & hardware support : Manuel Goepfert

Contact : metmap@orbifly.com




SOURCES & CREDITS :

   NOAA       Earth
Advisory